createdAt,value
2022-12-08T00:02:02.291Z,5.60
2022-12-08T00:04:50.896Z,7.20
2022-12-08T00:07:37.555Z,8.70
2022-12-08T00:10:25.160Z,6.70
2022-12-08T00:12:54.943Z,9.50
2022-12-08T00:15:23.427Z,11.20
2022-12-08T00:17:51.821Z,9.10
2022-12-08T00:20:20.271Z,7.80
2022-12-08T00:22:48.687Z,12.30
2022-12-08T00:25:17.192Z,14.60
2022-12-08T00:27:45.560Z,8.60
2022-12-08T00:30:14.315Z,11.00
2022-12-08T00:32:42.759Z,9.20
2022-12-08T00:35:11.186Z,4.10
2022-12-08T00:37:39.623Z,5.10
2022-12-08T00:40:08.707Z,6.50
2022-12-08T00:42:37.081Z,3.90
2022-12-08T00:45:05.811Z,1.00
2022-12-08T00:47:34.186Z,1.00
2022-12-08T00:50:02.767Z,1.00
2022-12-08T00:52:31.437Z,3.60
2022-12-08T00:54:59.879Z,7.40
2022-12-08T00:57:28.337Z,8.50
2022-12-08T00:59:56.896Z,11.10
2022-12-08T01:02:25.840Z,14.10
2022-12-08T01:04:54.258Z,14.20
2022-12-08T01:07:22.735Z,20.50
2022-12-08T01:09:51.126Z,21.20
2022-12-08T01:12:19.576Z,23.70
2022-12-08T01:14:48.047Z,23.70
2022-12-08T01:17:16.523Z,26.60
2022-12-08T01:19:44.880Z,28.90
2022-12-08T01:22:13.452Z,24.00
2022-12-08T01:24:41.851Z,22.60
2022-12-08T01:27:10.241Z,23.00
2022-12-08T01:29:38.706Z,23.50
2022-12-08T01:32:07.191Z,23.60
2022-12-08T01:34:35.691Z,26.50
2022-12-08T01:37:04.153Z,26.50
2022-12-08T01:39:32.533Z,30.80
2022-12-08T01:42:00.900Z,26.40
2022-12-08T01:44:29.281Z,25.40
2022-12-08T01:46:57.831Z,28.80
2022-12-08T01:49:36.868Z,28.90
2022-12-08T01:52:18.713Z,30.40
2022-12-08T01:54:57.153Z,27.30
2022-12-08T01:57:33.648Z,26.00
2022-12-08T02:00:14.319Z,27.70
2022-12-08T02:03:05.332Z,32.90
2022-12-08T02:05:37.080Z,42.50
2022-12-08T02:08:09.106Z,54.20
2022-12-08T02:10:40.487Z,64.40
2022-12-08T02:13:14.043Z,68.00
2022-12-08T02:16:01.029Z,66.20
2022-12-08T02:18:40.901Z,61.10
2022-12-08T02:21:15.179Z,66.50
2022-12-08T02:24:24.440Z,76.60
2022-12-08T02:27:11.521Z,84.00
2022-12-08T02:30:09.327Z,78.20
2022-12-08T02:33:19.603Z,73.50
2022-12-08T02:35:57.169Z,71.30
2022-12-08T02:38:36.561Z,70.20
2022-12-08T02:41:18.210Z,72.80
2022-12-08T02:43:54.675Z,73.00
2022-12-08T02:46:47.825Z,73.60
2022-12-08T02:49:17.562Z,71.20
2022-12-08T02:51:45.965Z,72.80
2022-12-08T02:54:15.937Z,66.60
2022-12-08T02:57:08.922Z,63.40
2022-12-08T03:00:14.993Z,56.90
2022-12-08T03:02:46.540Z,62.40
2022-12-08T03:05:53.196Z,62.00
2022-12-08T03:08:21.647Z,66.60
2022-12-08T03:11:00.692Z,60.90
2022-12-08T03:13:39.691Z,64.70
2022-12-08T03:16:10.856Z,71.50
2022-12-08T03:18:44.412Z,83.20
2022-12-08T03:21:17.455Z,87.70
2022-12-08T03:23:48.514Z,92.30
2022-12-08T03:26:37.564Z,95.70
2022-12-08T03:29:06.387Z,99.60
2022-12-08T03:31:39.156Z,99.90
2022-12-08T03:34:08.988Z,99.60
2022-12-08T03:36:37.537Z,99.60
2022-12-08T03:39:06.072Z,99.90
2022-12-08T03:41:34.514Z,99.90
2022-12-08T03:44:03.156Z,99.90
2022-12-08T03:48:59.075Z,99.90
2022-12-08T03:51:28.065Z,99.90
2022-12-08T03:53:56.485Z,99.90
2022-12-08T03:56:26.649Z,99.90
2022-12-08T03:58:55.814Z,99.90
2022-12-08T04:01:24.692Z,99.90
2022-12-08T04:03:53.492Z,90.70
2022-12-08T04:06:22.526Z,95.70
2022-12-08T04:08:52.100Z,97.20
2022-12-08T04:11:21.252Z,94.20
2022-12-08T04:13:50.003Z,95.00
2022-12-08T04:16:24.692Z,95.60
2022-12-08T04:18:53.531Z,97.10
2022-12-08T04:21:22.589Z,98.90
2022-12-08T04:23:52.891Z,98.90
2022-12-08T04:26:23.305Z,97.10
2022-12-08T04:28:51.712Z,97.90
2022-12-08T04:31:20.191Z,98.90
2022-12-08T04:33:49.473Z,97.20
2022-12-08T04:36:17.960Z,83.90
2022-12-08T04:38:46.346Z,91.30
2022-12-08T04:41:14.752Z,90.40
2022-12-08T04:43:45.205Z,91.50
2022-12-08T04:46:13.880Z,92.60
2022-12-08T04:48:42.977Z,96.00
2022-12-08T04:51:18.315Z,95.70
2022-12-08T04:53:47.622Z,97.00
2022-12-08T04:56:17.977Z,95.50
2022-12-08T04:58:46.965Z,91.70
2022-12-08T05:01:16.046Z,91.80
2022-12-08T05:03:44.540Z,92.70
2022-12-08T05:06:15.343Z,82.80
2022-12-08T05:08:44.836Z,67.90
2022-12-08T05:11:14.550Z,50.60
2022-12-08T05:13:42.962Z,41.00
2022-12-08T05:16:14.483Z,38.00
2022-12-08T05:18:43.971Z,39.00
2022-12-08T05:21:12.808Z,48.00
2022-12-08T05:23:41.286Z,54.60
2022-12-08T05:26:09.805Z,60.00
2022-12-08T05:28:42.745Z,68.80
2022-12-08T05:31:16.416Z,64.40
2022-12-08T05:33:46.165Z,53.30
2022-12-08T05:36:16.434Z,49.60
2022-12-08T05:38:45.294Z,55.10
2022-12-08T05:41:21.948Z,56.40
2022-12-08T05:43:50.762Z,54.40
2022-12-08T05:46:29.569Z,48.70
2022-12-08T05:48:59.924Z,47.30
2022-12-08T05:51:28.705Z,45.80
2022-12-08T05:53:57.905Z,47.20
2022-12-08T05:56:26.489Z,42.00
2022-12-08T05:58:54.925Z,33.40
2022-12-08T06:01:28.852Z,37.40
2022-12-08T06:03:59.666Z,34.50
2022-12-08T06:06:29.083Z,35.20
2022-12-08T06:08:57.492Z,30.00
2022-12-08T06:11:32.045Z,35.30
2022-12-08T06:14:01.299Z,40.50
2022-12-08T06:16:30.579Z,33.80
2022-12-08T06:18:59.227Z,26.40
2022-12-08T06:21:27.597Z,24.10
2022-12-08T06:23:56.560Z,14.10
2022-12-08T06:26:25.087Z,11.10
2022-12-08T06:28:53.943Z,6.80
2022-12-08T06:31:24.940Z,8.10
2022-12-08T06:33:54.846Z,3.80
2022-12-08T06:36:26.343Z,1.00
2022-12-08T06:38:54.799Z,1.00
2022-12-08T06:41:23.251Z,1.00
2022-12-08T06:43:51.700Z,1.00
2022-12-08T06:46:21.628Z,1.00
2022-12-08T06:48:51.395Z,1.00
2022-12-08T06:51:22.909Z,1.00
2022-12-08T06:53:51.351Z,1.00
2022-12-08T06:56:20.896Z,1.00
2022-12-08T06:58:52.723Z,1.00
2022-12-08T07:01:21.486Z,1.00
2022-12-08T07:03:49.973Z,1.00
2022-12-08T07:06:22.780Z,1.00
2022-12-08T07:08:51.598Z,1.00
2022-12-08T07:11:22.426Z,1.00
2022-12-08T07:13:51.746Z,1.00
2022-12-08T07:16:20.508Z,1.00
2022-12-08T07:18:49.287Z,1.00
2022-12-08T07:21:18.582Z,1.00
2022-12-08T07:23:54.045Z,1.00
2022-12-08T07:26:26.114Z,1.00
2022-12-08T07:28:54.492Z,1.00
2022-12-08T07:31:25.474Z,1.00
2022-12-08T07:33:54.571Z,1.00
2022-12-08T07:36:23.518Z,1.00
2022-12-08T07:38:54.081Z,1.00
2022-12-08T07:41:24.761Z,1.00
2022-12-08T07:43:54.736Z,1.00
2022-12-08T07:46:25.021Z,1.00
2022-12-08T07:48:55.093Z,1.00
2022-12-08T07:51:24.030Z,1.00
2022-12-08T07:53:54.590Z,1.00
2022-12-08T07:56:24.294Z,1.00
2022-12-08T07:58:53.134Z,1.00
2022-12-08T08:01:24.524Z,1.00
2022-12-08T08:03:53.743Z,1.00
2022-12-08T08:06:22.307Z,1.00
2022-12-08T08:08:51.171Z,1.00
2022-12-08T08:11:21.577Z,1.00
2022-12-08T08:13:51.555Z,1.00
2022-12-08T08:16:20.954Z,1.00
2022-12-08T08:18:51.878Z,1.00
2022-12-08T08:24:09.712Z,1.00
2022-12-08T08:26:38.552Z,1.00
2022-12-08T08:29:06.941Z,1.00
2022-12-08T08:31:35.490Z,1.00
2022-12-08T08:34:06.951Z,1.00
2022-12-08T08:36:35.675Z,1.00
2022-12-08T08:39:05.145Z,1.00
2022-12-08T08:41:33.676Z,1.00
2022-12-08T08:44:02.383Z,1.00
2022-12-08T08:46:30.797Z,1.00
2022-12-08T08:48:59.285Z,1.00
2022-12-08T08:51:27.680Z,1.00
2022-12-08T08:53:56.794Z,1.00
2022-12-08T08:56:26.140Z,1.00
2022-12-08T08:58:55.819Z,1.00
2022-12-08T09:01:27.661Z,1.00
2022-12-08T09:03:57.264Z,1.00
2022-12-08T09:06:26.843Z,1.00
2022-12-08T09:08:55.495Z,1.00
2022-12-08T09:11:26.655Z,1.00
2022-12-08T09:13:55.852Z,1.00
2022-12-08T09:16:24.867Z,1.00
2022-12-08T09:18:54.381Z,1.00
2022-12-08T09:21:26.606Z,1.00
2022-12-08T09:23:57.408Z,1.00
2022-12-08T09:26:27.309Z,1.00
2022-12-08T09:28:57.477Z,1.00
2022-12-08T09:31:26.198Z,1.00
2022-12-08T09:33:54.686Z,1.00
2022-12-08T09:36:23.344Z,1.00
2022-12-08T09:38:54.259Z,1.00
2022-12-08T09:41:48.309Z,1.00
2022-12-08T09:44:27.884Z,1.00
2022-12-08T09:46:59.042Z,1.00
2022-12-08T09:49:47.139Z,1.00
2022-12-08T09:52:24.914Z,1.00
2022-12-08T09:54:53.557Z,1.00
2022-12-08T09:57:25.808Z,1.00
2022-12-08T10:00:01.211Z,1.00
2022-12-08T10:02:31.787Z,1.00
2022-12-08T10:05:00.983Z,1.00
2022-12-08T10:07:48.116Z,1.00
2022-12-08T10:10:48.383Z,1.00
2022-12-08T10:13:22.756Z,6.60
2022-12-08T10:16:22.047Z,20.40
2022-12-08T10:19:00.906Z,28.30
2022-12-08T10:21:31.350Z,63.50
2022-12-08T10:24:07.238Z,82.00
2022-12-08T10:26:35.630Z,93.30
2022-12-08T10:29:04.622Z,99.90
2022-12-08T10:31:33.311Z,99.90
2022-12-08T10:34:12.553Z,99.90
2022-12-08T10:36:57.346Z,99.90
2022-12-08T10:39:38.276Z,99.90
2022-12-08T10:42:16.799Z,99.90
2022-12-08T10:45:00.579Z,99.90
2022-12-08T10:47:30.591Z,99.90
2022-12-08T10:50:21.774Z,99.90
2022-12-08T10:53:09.766Z,99.90
2022-12-08T10:55:45.218Z,99.90
2022-12-08T10:58:30.732Z,99.90
2022-12-08T11:01:07.355Z,99.90
2022-12-08T11:03:40.516Z,99.90
2022-12-08T11:06:30.453Z,99.90
2022-12-08T11:09:04.154Z,99.90
2022-12-08T11:12:06.316Z,99.90
2022-12-08T11:15:02.226Z,99.90
2022-12-08T11:17:40.097Z,99.90
2022-12-08T11:20:11.655Z,99.90
2022-12-08T11:22:43.563Z,99.90
2022-12-08T11:25:20.361Z,99.90
2022-12-08T11:27:50.996Z,99.90
2022-12-08T11:30:26.760Z,99.90
2022-12-08T11:33:07.462Z,99.90
2022-12-08T11:35:41.404Z,99.90
2022-12-08T11:38:24.641Z,99.90
2022-12-08T11:41:15.784Z,99.90
2022-12-08T11:44:07.210Z,99.90
2022-12-08T11:46:44.274Z,99.90
2022-12-08T11:49:15.220Z,99.90
2022-12-08T11:51:59.288Z,99.90
2022-12-08T11:54:40.488Z,99.90
2022-12-08T11:57:17.323Z,99.90
2022-12-08T11:59:56.024Z,99.90
2022-12-08T12:02:30.603Z,99.90
2022-12-08T12:05:08.685Z,99.90
2022-12-08T12:08:11.102Z,99.90
2022-12-08T12:11:07.080Z,99.90
2022-12-08T12:13:53.732Z,99.90
2022-12-08T12:16:43.541Z,99.90
2022-12-08T12:19:17.294Z,99.90
2022-12-08T12:21:50.676Z,99.90
2022-12-08T12:24:28.428Z,99.90
2022-12-08T12:27:16.572Z,99.90
2022-12-08T12:30:03.713Z,99.90
2022-12-08T12:32:45.688Z,99.90
2022-12-08T12:35:27.159Z,99.90
2022-12-08T12:38:02.376Z,99.90
2022-12-08T12:40:40.728Z,99.90
2022-12-08T12:43:11.968Z,99.90
2022-12-08T12:45:44.779Z,99.90
2022-12-08T12:48:24.008Z,99.90
2022-12-08T12:50:53.738Z,99.90
2022-12-08T12:53:22.067Z,99.90
2022-12-08T12:55:53.361Z,99.90
2022-12-08T12:58:39.966Z,99.90
2022-12-08T13:01:14.630Z,99.90
2022-12-08T13:03:50.676Z,99.90
2022-12-08T13:06:34.871Z,99.90
2022-12-08T13:09:03.372Z,99.90
2022-12-08T13:11:47.917Z,99.90
2022-12-08T13:14:46.430Z,99.90
2022-12-08T13:17:26.525Z,99.90
2022-12-08T13:20:00.557Z,99.90
2022-12-08T13:22:47.593Z,99.90
2022-12-08T13:25:40.769Z,99.90
2022-12-08T13:28:25.741Z,99.90
2022-12-08T13:30:59.201Z,99.90
2022-12-08T13:33:38.831Z,99.90
2022-12-08T13:36:25.276Z,99.90
2022-12-08T13:38:58.892Z,99.90
2022-12-08T13:41:59.176Z,99.90
2022-12-08T13:48:20.380Z,99.90
2022-12-08T13:52:59.854Z,99.90
2022-12-08T13:54:45.737Z,99.90
2022-12-08T13:59:34.827Z,99.90
2022-12-08T14:02:14.541Z,99.90
2022-12-08T14:05:16.982Z,99.90
2022-12-08T14:07:38.659Z,99.90
2022-12-08T14:10:17.019Z,99.90
2022-12-08T14:12:49.188Z,99.90
2022-12-08T14:15:18.321Z,99.90
2022-12-08T14:17:58.863Z,99.90
2022-12-08T14:20:51.995Z,99.90
2022-12-08T14:23:23.601Z,99.90
2022-12-08T14:25:52.065Z,99.90
2022-12-08T14:28:20.713Z,99.90
2022-12-08T14:30:51.087Z,99.90
2022-12-08T14:33:20.241Z,99.90
2022-12-08T14:35:57.246Z,99.90
2022-12-08T14:38:27.351Z,99.90
2022-12-08T14:41:09.469Z,99.90
2022-12-08T14:43:37.990Z,99.90
2022-12-08T14:46:23.264Z,99.90
2022-12-08T14:48:51.872Z,99.90
2022-12-08T14:51:27.081Z,99.90
2022-12-08T14:54:10.871Z,99.90
2022-12-08T14:56:57.000Z,99.90
2022-12-08T14:59:32.530Z,99.90
2022-12-08T15:02:28.274Z,99.90
2022-12-08T15:05:02.556Z,99.90
2022-12-08T15:07:45.605Z,99.90
2022-12-08T15:10:16.812Z,99.90
2022-12-08T15:13:08.274Z,99.90
2022-12-08T15:15:57.906Z,99.90
2022-12-08T15:18:41.411Z,99.90
2022-12-08T15:21:13.591Z,99.90
2022-12-08T15:23:47.688Z,99.90
2022-12-08T15:26:29.044Z,99.90
2022-12-08T15:28:57.606Z,99.90
2022-12-08T15:31:26.081Z,99.90
2022-12-08T15:33:54.488Z,99.90
2022-12-08T15:36:23.298Z,99.90
2022-12-08T15:38:51.794Z,99.90
2022-12-08T15:41:20.164Z,99.90
2022-12-08T15:43:48.584Z,99.90
2022-12-08T15:46:16.984Z,99.90
2022-12-08T15:48:45.962Z,99.90
2022-12-08T15:51:14.407Z,99.90
2022-12-08T15:53:43.289Z,99.90
2022-12-08T15:56:27.513Z,99.90
2022-12-08T15:58:57.901Z,99.90
2022-12-08T16:01:27.070Z,99.90
2022-12-08T16:09:43.226Z,99.90
2022-12-08T16:15:59.819Z,99.90
2022-12-08T16:18:29.572Z,99.90
2022-12-08T16:21:09.612Z,99.90
2022-12-08T16:23:46.680Z,99.90
2022-12-08T16:27:06.945Z,99.90
2022-12-08T16:29:10.999Z,99.90
2022-12-08T16:31:39.440Z,99.90
2022-12-08T16:34:07.865Z,99.90
2022-12-08T16:36:36.375Z,99.90
2022-12-08T16:39:05.330Z,99.90
2022-12-08T16:41:52.084Z,99.90
2022-12-08T16:44:20.481Z,99.90
2022-12-08T16:46:48.849Z,99.90
2022-12-08T16:49:17.451Z,99.90
2022-12-08T16:51:45.988Z,99.90
2022-12-08T16:54:14.378Z,99.90
2022-12-08T16:56:42.799Z,99.90
2022-12-08T16:59:11.193Z,99.90
2022-12-08T17:01:39.727Z,99.90
2022-12-08T17:04:30.517Z,99.90
2022-12-08T17:06:56.628Z,99.90
2022-12-08T17:09:25.783Z,99.90
2022-12-08T17:11:57.602Z,99.90
2022-12-08T17:14:28.768Z,99.90
2022-12-08T17:16:57.525Z,99.90
2022-12-08T17:19:25.939Z,99.90
2022-12-08T17:21:54.349Z,99.90
2022-12-08T17:24:23.914Z,99.90
2022-12-08T17:26:53.659Z,99.90
2022-12-08T17:29:22.189Z,99.90
2022-12-08T17:31:50.965Z,99.90
2022-12-08T17:34:19.397Z,99.90
2022-12-08T17:36:47.885Z,99.90
2022-12-08T17:39:18.851Z,99.90
2022-12-08T17:41:48.883Z,99.90
2022-12-08T17:44:19.595Z,99.90
2022-12-08T17:46:52.674Z,99.90
2022-12-08T17:49:26.669Z,99.90
2022-12-08T17:51:57.215Z,99.90
2022-12-08T17:54:26.748Z,99.90
2022-12-08T17:56:55.237Z,99.90
2022-12-08T17:59:23.678Z,99.90
2022-12-08T18:01:54.615Z,99.90
2022-12-08T18:04:23.866Z,99.90
2022-12-08T18:06:52.443Z,99.90
2022-12-08T18:09:21.059Z,99.90
2022-12-08T18:11:49.622Z,99.90
2022-12-08T18:14:18.077Z,99.90
2022-12-08T18:16:48.621Z,99.90
2022-12-08T18:19:17.389Z,99.90
2022-12-08T18:21:46.120Z,99.90
2022-12-08T18:24:20.504Z,99.90
2022-12-08T18:26:49.734Z,99.90
2022-12-08T18:29:18.282Z,99.90
2022-12-08T18:31:46.784Z,99.90
2022-12-08T18:34:15.294Z,99.90
2022-12-08T18:36:43.983Z,99.90
2022-12-08T18:39:38.505Z,99.90
2022-12-08T18:42:27.225Z,99.90
2022-12-08T18:45:00.091Z,99.90
2022-12-08T18:47:28.532Z,99.90
2022-12-08T18:49:56.949Z,99.90
2022-12-08T18:52:31.581Z,99.90
2022-12-08T18:55:08.081Z,99.90
2022-12-08T18:57:39.798Z,99.90
2022-12-08T19:00:10.228Z,99.90
2022-12-08T19:02:39.709Z,99.90
2022-12-08T19:05:09.474Z,99.90
2022-12-08T19:07:38.460Z,99.90
2022-12-08T19:10:08.406Z,99.90
2022-12-08T19:12:37.038Z,99.90
2022-12-08T19:15:06.009Z,99.90
2022-12-08T19:17:34.667Z,99.90
2022-12-08T19:20:03.286Z,99.90
2022-12-08T19:22:32.294Z,99.90
2022-12-08T19:25:00.773Z,99.90
2022-12-08T19:27:29.934Z,99.90
2022-12-08T19:29:58.323Z,99.90
2022-12-08T19:32:26.942Z,99.90
2022-12-08T19:34:55.360Z,99.90
2022-12-08T19:37:23.756Z,99.90
2022-12-08T19:40:10.556Z,99.90
2022-12-08T19:42:57.497Z,99.90
2022-12-08T19:45:26.840Z,99.90
2022-12-08T19:47:55.373Z,99.90
2022-12-08T19:50:39.028Z,99.90
2022-12-08T19:53:11.965Z,99.90
2022-12-08T19:55:41.507Z,99.90
2022-12-08T19:58:10.751Z,99.90
2022-12-08T20:00:41.189Z,99.90
2022-12-08T20:03:10.220Z,99.90
2022-12-08T20:05:40.995Z,99.90
2022-12-08T20:08:09.628Z,99.90
2022-12-08T20:10:41.777Z,99.90
2022-12-08T20:13:40.146Z,99.90
2022-12-08T20:16:09.312Z,99.90
2022-12-08T20:18:39.121Z,99.90
2022-12-08T20:21:08.353Z,99.90
2022-12-08T20:23:38.440Z,99.90
2022-12-08T20:26:09.146Z,99.90
2022-12-08T20:28:38.770Z,99.90
2022-12-08T20:31:07.423Z,99.90
2022-12-08T20:33:36.357Z,99.90
2022-12-08T20:36:08.209Z,99.90
2022-12-08T20:38:36.775Z,99.90
2022-12-08T20:41:10.266Z,99.90
2022-12-08T20:43:39.177Z,99.90
2022-12-08T20:46:08.820Z,99.90
2022-12-08T20:48:37.527Z,99.90
2022-12-08T20:51:06.606Z,99.90
2022-12-08T20:53:35.014Z,99.90
2022-12-08T20:56:03.623Z,99.90
2022-12-08T20:58:32.195Z,99.90
2022-12-08T21:01:00.619Z,99.90
2022-12-08T21:03:29.166Z,99.90
2022-12-08T21:05:57.976Z,99.90
2022-12-08T21:08:26.817Z,99.90
2022-12-08T21:10:57.031Z,99.90
2022-12-08T21:13:25.594Z,99.90
2022-12-08T21:15:54.545Z,99.90
2022-12-08T21:18:23.300Z,99.90
2022-12-08T21:20:52.897Z,99.90
2022-12-08T21:23:21.445Z,99.90
2022-12-08T21:25:49.961Z,99.90
2022-12-08T21:28:18.455Z,99.90
2022-12-08T21:30:46.901Z,99.90
2022-12-08T21:33:15.626Z,99.90
2022-12-08T21:35:44.392Z,99.90
2022-12-08T21:38:13.063Z,99.90
2022-12-08T21:40:41.524Z,99.90
2022-12-08T21:43:10.177Z,99.90
2022-12-08T21:45:38.782Z,99.90
2022-12-08T21:48:11.468Z,99.90
2022-12-08T21:50:40.530Z,99.90
2022-12-08T21:53:09.056Z,99.90
2022-12-08T21:55:37.576Z,99.90
2022-12-08T21:58:06.582Z,99.90
2022-12-08T22:00:35.203Z,99.90
2022-12-08T22:03:05.396Z,99.90
2022-12-08T22:05:36.264Z,99.90
2022-12-08T22:08:04.752Z,99.90
2022-12-08T22:10:33.316Z,99.90
2022-12-08T22:13:09.695Z,99.90
2022-12-08T22:15:39.282Z,99.90
2022-12-08T22:18:09.121Z,99.90
2022-12-08T22:20:43.831Z,99.90
2022-12-08T22:23:18.331Z,99.90
2022-12-08T22:25:47.072Z,99.90
2022-12-08T22:28:15.568Z,99.90
2022-12-08T22:30:43.923Z,99.90
2022-12-08T22:33:12.395Z,99.90
2022-12-08T22:35:40.767Z,99.90
2022-12-08T22:38:09.650Z,99.90
2022-12-08T22:40:42.142Z,99.90
2022-12-08T22:43:10.602Z,99.90
2022-12-08T22:45:39.050Z,99.90
2022-12-08T22:48:07.821Z,99.90
2022-12-08T22:50:36.260Z,99.90
2022-12-08T22:53:04.873Z,99.90
2022-12-08T22:55:33.847Z,99.90
2022-12-08T22:58:02.511Z,99.90
2022-12-08T23:00:30.958Z,99.90
2022-12-08T23:02:59.545Z,99.90
2022-12-08T23:05:28.401Z,99.90
2022-12-08T23:07:56.919Z,99.90
2022-12-08T23:10:25.401Z,99.90
2022-12-08T23:12:55.956Z,99.90
2022-12-08T23:15:26.755Z,99.90
2022-12-08T23:17:55.273Z,99.90
2022-12-08T23:20:23.711Z,99.90
2022-12-08T23:22:52.586Z,99.90
2022-12-08T23:25:21.002Z,99.90
2022-12-08T23:27:49.404Z,99.90
2022-12-08T23:30:18.167Z,99.90
2022-12-08T23:32:46.611Z,99.90
2022-12-08T23:35:15.244Z,99.90
2022-12-08T23:37:43.937Z,99.90
2022-12-08T23:40:12.867Z,99.90
2022-12-08T23:42:41.552Z,99.90
2022-12-08T23:45:10.450Z,99.90
2022-12-08T23:47:38.976Z,99.90
2022-12-08T23:50:08.608Z,99.90
2022-12-08T23:52:39.415Z,99.90
2022-12-08T23:55:09.083Z,99.90
2022-12-08T23:57:38.055Z,99.90
